sensor_id;sensor_type;location;lat;lon;timestamp;temperature;humidity
50969;DHT22;36982;51.474;7.228;2024-02-23T00:01:36;6.60;89.20
50969;DHT22;36982;51.474;7.228;2024-02-23T00:04:01;6.50;88.00
50969;DHT22;36982;51.474;7.228;2024-02-23T00:06:28;6.40;90.20
50969;DHT22;36982;51.474;7.228;2024-02-23T00:08:54;6.30;90.60
50969;DHT22;36982;51.474;7.228;2024-02-23T00:11:20;6.20;91.60
50969;DHT22;36982;51.474;7.228;2024-02-23T00:13:46;6.40;91.10
50969;DHT22;36982;51.474;7.228;2024-02-23T00:16:12;6.30;87.00
50969;DHT22;36982;51.474;7.228;2024-02-23T00:18:38;6.20;86.50
50969;DHT22;36982;51.474;7.228;2024-02-23T00:21:04;6.20;88.70
50969;DHT22;36982;51.474;7.228;2024-02-23T00:23:30;6.20;83.60
50969;DHT22;36982;51.474;7.228;2024-02-23T00:25:55;6.20;82.00
50969;DHT22;36982;51.474;7.228;2024-02-23T00:28:21;6.20;84.40
50969;DHT22;36982;51.474;7.228;2024-02-23T00:30:46;6.10;73.00
50969;DHT22;36982;51.474;7.228;2024-02-23T00:33:12;6.10;72.50
50969;DHT22;36982;51.474;7.228;2024-02-23T00:35:38;6.10;72.50
50969;DHT22;36982;51.474;7.228;2024-02-23T00:38:03;6.10;78.30
50969;DHT22;36982;51.474;7.228;2024-02-23T00:40:29;6.10;80.50
50969;DHT22;36982;51.474;7.228;2024-02-23T00:42:55;6.10;81.10
50969;DHT22;36982;51.474;7.228;2024-02-23T00:45:20;6.00;85.90
50969;DHT22;36982;51.474;7.228;2024-02-23T00:47:47;6.00;88.30
50969;DHT22;36982;51.474;7.228;2024-02-23T00:50:13;5.90;89.70
50969;DHT22;36982;51.474;7.228;2024-02-23T00:52:38;5.90;85.30
50969;DHT22;36982;51.474;7.228;2024-02-23T00:55:04;6.10;82.10
50969;DHT22;36982;51.474;7.228;2024-02-23T00:57:30;6.10;80.20
50969;DHT22;36982;51.474;7.228;2024-02-23T00:59:57;6.10;81.00
50969;DHT22;36982;51.474;7.228;2024-02-23T01:02:22;6.10;77.60
50969;DHT22;36982;51.474;7.228;2024-02-23T01:04:48;6.10;78.10
50969;DHT22;36982;51.474;7.228;2024-02-23T01:07:13;6.10;67.10
50969;DHT22;36982;51.474;7.228;2024-02-23T01:09:39;6.10;64.50
50969;DHT22;36982;51.474;7.228;2024-02-23T01:12:04;6.10;66.10
50969;DHT22;36982;51.474;7.228;2024-02-23T01:14:31;6.10;70.10
50969;DHT22;36982;51.474;7.228;2024-02-23T01:16:56;6.10;65.80
50969;DHT22;36982;51.474;7.228;2024-02-23T01:19:22;6.00;65.60
50969;DHT22;36982;51.474;7.228;2024-02-23T01:21:49;6.00;65.40
50969;DHT22;36982;51.474;7.228;2024-02-23T01:24:17;6.00;70.20
50969;DHT22;36982;51.474;7.228;2024-02-23T01:26:42;6.00;73.50
50969;DHT22;36982;51.474;7.228;2024-02-23T01:29:08;6.00;64.80
50969;DHT22;36982;51.474;7.228;2024-02-23T01:31:34;5.90;69.40
50969;DHT22;36982;51.474;7.228;2024-02-23T01:33:59;5.80;70.90
50969;DHT22;36982;51.474;7.228;2024-02-23T01:36:25;5.80;70.70
50969;DHT22;36982;51.474;7.228;2024-02-23T01:38:50;5.80;69.50
50969;DHT22;36982;51.474;7.228;2024-02-23T01:41:16;5.90;66.00
50969;DHT22;36982;51.474;7.228;2024-02-23T01:43:41;5.80;63.80
50969;DHT22;36982;51.474;7.228;2024-02-23T01:46:07;5.80;67.10
50969;DHT22;36982;51.474;7.228;2024-02-23T01:48:33;5.80;70.20
50969;DHT22;36982;51.474;7.228;2024-02-23T01:50:59;5.90;64.90
50969;DHT22;36982;51.474;7.228;2024-02-23T01:53:25;6.00;63.50
50969;DHT22;36982;51.474;7.228;2024-02-23T01:55:53;6.00;67.00
50969;DHT22;36982;51.474;7.228;2024-02-23T01:58:19;6.10;63.20
50969;DHT22;36982;51.474;7.228;2024-02-23T02:00:45;6.10;61.20
50969;DHT22;36982;51.474;7.228;2024-02-23T02:03:10;6.20;54.70
50969;DHT22;36982;51.474;7.228;2024-02-23T02:05:39;6.10;56.70
50969;DHT22;36982;51.474;7.228;2024-02-23T02:08:05;6.10;58.30
50969;DHT22;36982;51.474;7.228;2024-02-23T02:10:31;6.10;58.90
50969;DHT22;36982;51.474;7.228;2024-02-23T02:13:05;6.10;61.10
50969;DHT22;36982;51.474;7.228;2024-02-23T02:15:31;6.10;57.50
50969;DHT22;36982;51.474;7.228;2024-02-23T02:17:56;6.10;52.90
50969;DHT22;36982;51.474;7.228;2024-02-23T02:20:24;6.10;56.90
50969;DHT22;36982;51.474;7.228;2024-02-23T02:22:53;6.10;51.50
50969;DHT22;36982;51.474;7.228;2024-02-23T02:25:19;6.00;54.10
50969;DHT22;36982;51.474;7.228;2024-02-23T02:27:45;6.00;52.70
50969;DHT22;36982;51.474;7.228;2024-02-23T02:30:12;6.00;51.30
50969;DHT22;36982;51.474;7.228;2024-02-23T02:32:37;6.00;51.00
50969;DHT22;36982;51.474;7.228;2024-02-23T02:35:04;6.00;47.40
50969;DHT22;36982;51.474;7.228;2024-02-23T02:37:29;6.10;40.60
50969;DHT22;36982;51.474;7.228;2024-02-23T02:39:55;6.00;39.70
50969;DHT22;36982;51.474;7.228;2024-02-23T02:42:20;6.20;39.20
50969;DHT22;36982;51.474;7.228;2024-02-23T02:44:46;6.10;38.70
50969;DHT22;36982;51.474;7.228;2024-02-23T02:47:11;6.10;35.40
50969;DHT22;36982;51.474;7.228;2024-02-23T02:49:39;6.10;39.00
50969;DHT22;36982;51.474;7.228;2024-02-23T02:52:04;6.10;40.00
50969;DHT22;36982;51.474;7.228;2024-02-23T02:54:30;6.10;44.30
50969;DHT22;36982;51.474;7.228;2024-02-23T02:56:56;6.00;42.60
50969;DHT22;36982;51.474;7.228;2024-02-23T02:59:22;6.10;39.30
50969;DHT22;36982;51.474;7.228;2024-02-23T03:01:48;6.10;42.40
50969;DHT22;36982;51.474;7.228;2024-02-23T03:04:14;6.10;41.00
50969;DHT22;36982;51.474;7.228;2024-02-23T03:06:39;6.10;40.60
50969;DHT22;36982;51.474;7.228;2024-02-23T03:09:05;6.00;41.90
50969;DHT22;36982;51.474;7.228;2024-02-23T03:11:30;6.10;41.70
50969;DHT22;36982;51.474;7.228;2024-02-23T03:13:56;6.00;43.60
50969;DHT22;36982;51.474;7.228;2024-02-23T03:16:21;6.00;45.10
50969;DHT22;36982;51.474;7.228;2024-02-23T03:18:55;6.10;39.70
50969;DHT22;36982;51.474;7.228;2024-02-23T03:21:21;6.00;39.70
50969;DHT22;36982;51.474;7.228;2024-02-23T03:23:46;5.90;38.90
50969;DHT22;36982;51.474;7.228;2024-02-23T03:26:12;5.90;39.00
50969;DHT22;36982;51.474;7.228;2024-02-23T03:28:37;5.90;39.10
50969;DHT22;36982;51.474;7.228;2024-02-23T03:31:03;5.80;37.60
50969;DHT22;36982;51.474;7.228;2024-02-23T03:33:29;5.70;41.80
50969;DHT22;36982;51.474;7.228;2024-02-23T03:35:54;5.70;44.50
50969;DHT22;36982;51.474;7.228;2024-02-23T03:38:20;5.70;44.80
50969;DHT22;36982;51.474;7.228;2024-02-23T03:40:46;5.70;44.40
50969;DHT22;36982;51.474;7.228;2024-02-23T03:43:12;5.80;46.40
50969;DHT22;36982;51.474;7.228;2024-02-23T03:45:37;5.80;43.60
50969;DHT22;36982;51.474;7.228;2024-02-23T03:48:04;5.90;44.70
50969;DHT22;36982;51.474;7.228;2024-02-23T03:50:30;5.90;40.00
50969;DHT22;36982;51.474;7.228;2024-02-23T03:52:56;5.90;40.00
50969;DHT22;36982;51.474;7.228;2024-02-23T03:55:22;5.90;37.30
50969;DHT22;36982;51.474;7.228;2024-02-23T03:57:48;5.90;37.30
50969;DHT22;36982;51.474;7.228;2024-02-23T04:00:13;6.00;35.20
50969;DHT22;36982;51.474;7.228;2024-02-23T04:02:39;6.00;30.00
50969;DHT22;36982;51.474;7.228;2024-02-23T04:05:06;6.00;29.00
50969;DHT22;36982;51.474;7.228;2024-02-23T04:07:31;6.00;29.00
50969;DHT22;36982;51.474;7.228;2024-02-23T04:09:57;6.10;29.60
50969;DHT22;36982;51.474;7.228;2024-02-23T04:12:23;6.00;29.00
50969;DHT22;36982;51.474;7.228;2024-02-23T04:14:48;6.00;35.30
50969;DHT22;36982;51.474;7.228;2024-02-23T04:17:15;6.00;33.00
50969;DHT22;36982;51.474;7.228;2024-02-23T04:19:42;6.00;36.10
50969;DHT22;36982;51.474;7.228;2024-02-23T04:22:08;6.00;30.00
50969;DHT22;36982;51.474;7.228;2024-02-23T04:24:36;6.00;30.20
50969;DHT22;36982;51.474;7.228;2024-02-23T04:27:04;6.10;30.60
50969;DHT22;36982;51.474;7.228;2024-02-23T04:29:29;6.00;29.50
50969;DHT22;36982;51.474;7.228;2024-02-23T04:31:55;6.00;29.30
50969;DHT22;36982;51.474;7.228;2024-02-23T04:34:21;6.00;26.70
50969;DHT22;36982;51.474;7.228;2024-02-23T04:36:46;6.00;26.70
50969;DHT22;36982;51.474;7.228;2024-02-23T04:39:12;6.00;24.40
50969;DHT22;36982;51.474;7.228;2024-02-23T04:41:37;5.90;22.90
50969;DHT22;36982;51.474;7.228;2024-02-23T04:44:03;5.90;20.10
50969;DHT22;36982;51.474;7.228;2024-02-23T04:46:30;5.90;22.80
50969;DHT22;36982;51.474;7.228;2024-02-23T04:48:56;6.00;20.60
50969;DHT22;36982;51.474;7.228;2024-02-23T04:51:21;5.90;18.60
50969;DHT22;36982;51.474;7.228;2024-02-23T04:53:49;6.00;17.20
50969;DHT22;36982;51.474;7.228;2024-02-23T04:56:14;6.00;14.70
50969;DHT22;36982;51.474;7.228;2024-02-23T04:58:40;6.00;15.10
50969;DHT22;36982;51.474;7.228;2024-02-23T05:01:08;6.00;16.50
50969;DHT22;36982;51.474;7.228;2024-02-23T05:03:33;6.00;16.10
50969;DHT22;36982;51.474;7.228;2024-02-23T05:05:59;6.10;15.60
50969;DHT22;36982;51.474;7.228;2024-02-23T05:08:25;6.10;15.80
50969;DHT22;36982;51.474;7.228;2024-02-23T05:10:52;6.10;13.20
50969;DHT22;36982;51.474;7.228;2024-02-23T05:13:18;6.10;13.60
50969;DHT22;36982;51.474;7.228;2024-02-23T05:15:44;6.10;13.60
50969;DHT22;36982;51.474;7.228;2024-02-23T05:18:09;6.00;14.20
50969;DHT22;36982;51.474;7.228;2024-02-23T05:20:35;6.10;13.70
50969;DHT22;36982;51.474;7.228;2024-02-23T05:23:01;6.10;11.20
50969;DHT22;36982;51.474;7.228;2024-02-23T05:25:26;5.90;11.20
50969;DHT22;36982;51.474;7.228;2024-02-23T05:27:52;6.00;12.20
50969;DHT22;36982;51.474;7.228;2024-02-23T05:30:18;6.00;13.30
50969;DHT22;36982;51.474;7.228;2024-02-23T05:32:43;6.20;13.40
50969;DHT22;36982;51.474;7.228;2024-02-23T05:35:09;6.00;13.70
50969;DHT22;36982;51.474;7.228;2024-02-23T05:37:35;6.00;14.10
50969;DHT22;36982;51.474;7.228;2024-02-23T05:40:01;6.00;10.50
50969;DHT22;36982;51.474;7.228;2024-02-23T05:42:31;6.00;11.20
50969;DHT22;36982;51.474;7.228;2024-02-23T05:45:07;6.00;12.40
50969;DHT22;36982;51.474;7.228;2024-02-23T05:47:39;6.00;10.30
50969;DHT22;36982;51.474;7.228;2024-02-23T05:50:07;6.00;11.60
50969;DHT22;36982;51.474;7.228;2024-02-23T05:52:35;6.00;10.20
50969;DHT22;36982;51.474;7.228;2024-02-23T05:55:02;6.00;12.40
50969;DHT22;36982;51.474;7.228;2024-02-23T05:57:27;6.00;10.90
50969;DHT22;36982;51.474;7.228;2024-02-23T05:59:53;5.90;12.20
50969;DHT22;36982;51.474;7.228;2024-02-23T06:02:20;5.80;11.90
50969;DHT22;36982;51.474;7.228;2024-02-23T06:04:46;5.70;12.60
50969;DHT22;36982;51.474;7.228;2024-02-23T06:07:13;5.70;13.80
50969;DHT22;36982;51.474;7.228;2024-02-23T06:09:40;5.70;13.90
50969;DHT22;36982;51.474;7.228;2024-02-23T06:12:06;5.60;16.80
50969;DHT22;36982;51.474;7.228;2024-02-23T06:14:32;5.60;16.30
50969;DHT22;36982;51.474;7.228;2024-02-23T06:16:57;5.50;20.50
50969;DHT22;36982;51.474;7.228;2024-02-23T06:19:23;5.50;18.30
50969;DHT22;36982;51.474;7.228;2024-02-23T06:21:49;5.50;17.20
50969;DHT22;36982;51.474;7.228;2024-02-23T06:24:16;5.40;21.80
50969;DHT22;36982;51.474;7.228;2024-02-23T06:26:41;5.40;18.90
50969;DHT22;36982;51.474;7.228;2024-02-23T06:29:07;5.40;18.80
50969;DHT22;36982;51.474;7.228;2024-02-23T06:31:37;5.30;20.60
50969;DHT22;36982;51.474;7.228;2024-02-23T06:34:02;5.30;20.10
50969;DHT22;36982;51.474;7.228;2024-02-23T06:36:28;5.40;20.40
50969;DHT22;36982;51.474;7.228;2024-02-23T06:38:53;5.50;16.70
50969;DHT22;36982;51.474;7.228;2024-02-23T06:41:19;5.40;15.70
50969;DHT22;36982;51.474;7.228;2024-02-23T06:43:44;5.50;15.40
50969;DHT22;36982;51.474;7.228;2024-02-23T06:46:10;5.40;15.90
50969;DHT22;36982;51.474;7.228;2024-02-23T06:48:36;5.50;19.50
50969;DHT22;36982;51.474;7.228;2024-02-23T06:51:05;5.50;16.00
50969;DHT22;36982;51.474;7.228;2024-02-23T06:53:31;5.50;14.90
50969;DHT22;36982;51.474;7.228;2024-02-23T06:55:56;5.40;17.60
50969;DHT22;36982;51.474;7.228;2024-02-23T06:58:24;5.40;15.50
50969;DHT22;36982;51.474;7.228;2024-02-23T07:00:49;5.60;15.90
50969;DHT22;36982;51.474;7.228;2024-02-23T07:03:15;5.50;18.70
50969;DHT22;36982;51.474;7.228;2024-02-23T07:05:42;5.50;14.20
50969;DHT22;36982;51.474;7.228;2024-02-23T07:08:08;5.50;13.50
50969;DHT22;36982;51.474;7.228;2024-02-23T07:10:33;5.50;14.10
50969;DHT22;36982;51.474;7.228;2024-02-23T07:12:59;5.50;13.70
50969;DHT22;36982;51.474;7.228;2024-02-23T07:15:25;5.50;13.10
50969;DHT22;36982;51.474;7.228;2024-02-23T07:17:52;5.50;14.60
50969;DHT22;36982;51.474;7.228;2024-02-23T07:20:17;5.40;14.30
50969;DHT22;36982;51.474;7.228;2024-02-23T07:22:44;5.50;14.40
50969;DHT22;36982;51.474;7.228;2024-02-23T07:25:11;5.50;16.60
50969;DHT22;36982;51.474;7.228;2024-02-23T07:27:37;5.60;11.90
50969;DHT22;36982;51.474;7.228;2024-02-23T07:30:03;5.50;13.70
50969;DHT22;36982;51.474;7.228;2024-02-23T07:32:30;5.60;15.00
50969;DHT22;36982;51.474;7.228;2024-02-23T07:34:55;5.60;12.50
50969;DHT22;36982;51.474;7.228;2024-02-23T07:37:21;5.60;10.10
50969;DHT22;36982;51.474;7.228;2024-02-23T07:39:46;5.70;10.10
50969;DHT22;36982;51.474;7.228;2024-02-23T07:42:12;5.80;9.60
50969;DHT22;36982;51.474;7.228;2024-02-23T07:44:40;5.70;10.00
50969;DHT22;36982;51.474;7.228;2024-02-23T07:47:06;5.70;8.40
50969;DHT22;36982;51.474;7.228;2024-02-23T07:49:31;5.70;9.60
50969;DHT22;36982;51.474;7.228;2024-02-23T07:51:57;5.70;8.20
50969;DHT22;36982;51.474;7.228;2024-02-23T07:54:22;5.70;8.80
50969;DHT22;36982;51.474;7.228;2024-02-23T07:56:48;5.70;11.90
50969;DHT22;36982;51.474;7.228;2024-02-23T07:59:38;5.70;13.20
50969;DHT22;36982;51.474;7.228;2024-02-23T08:02:03;5.80;12.10
50969;DHT22;36982;51.474;7.228;2024-02-23T08:04:29;5.90;12.00
50969;DHT22;36982;51.474;7.228;2024-02-23T08:06:55;6.10;8.30
50969;DHT22;36982;51.474;7.228;2024-02-23T08:09:20;6.20;8.20
50969;DHT22;36982;51.474;7.228;2024-02-23T08:11:47;6.30;7.20
50969;DHT22;36982;51.474;7.228;2024-02-23T08:14:13;6.40;1.20
50969;DHT22;36982;51.474;7.228;2024-02-23T08:16:38;6.40;1.00
50969;DHT22;36982;51.474;7.228;2024-02-23T08:19:04;6.40;1.00
50969;DHT22;36982;51.474;7.228;2024-02-23T08:21:29;6.40;1.00
50969;DHT22;36982;51.474;7.228;2024-02-23T08:23:55;6.40;1.10
50969;DHT22;36982;51.474;7.228;2024-02-23T08:26:20;6.40;2.70
50969;DHT22;36982;51.474;7.228;2024-02-23T08:28:46;6.50;1.60
50969;DHT22;36982;51.474;7.228;2024-02-23T08:31:34;6.50;1.10
50969;DHT22;36982;51.474;7.228;2024-02-23T08:33:59;6.60;1.00
50969;DHT22;36982;51.474;7.228;2024-02-23T08:36:25;6.70;1.00
50969;DHT22;36982;51.474;7.228;2024-02-23T08:38:50;6.90;1.00
50969;DHT22;36982;51.474;7.228;2024-02-23T08:41:16;7.00;1.00
50969;DHT22;36982;51.474;7.228;2024-02-23T08:43:42;6.90;1.00
50969;DHT22;36982;51.474;7.228;2024-02-23T08:46:07;7.00;1.00
50969;DHT22;36982;51.474;7.228;2024-02-23T08:48:33;7.10;1.00
50969;DHT22;36982;51.474;7.228;2024-02-23T08:50:58;7.10;1.00
50969;DHT22;36982;51.474;7.228;2024-02-23T08:53:24;7.00;1.00
50969;DHT22;36982;51.474;7.228;2024-02-23T08:55:49;7.10;1.00
50969;DHT22;36982;51.474;7.228;2024-02-23T08:58:15;7.10;1.00
50969;DHT22;36982;51.474;7.228;2024-02-23T09:00:41;7.10;1.00
50969;DHT22;36982;51.474;7.228;2024-02-23T09:03:06;7.20;1.00
50969;DHT22;36982;51.474;7.228;2024-02-23T09:05:32;7.30;1.00
50969;DHT22;36982;51.474;7.228;2024-02-23T09:07:58;7.40;1.00
50969;DHT22;36982;51.474;7.228;2024-02-23T09:10:23;7.50;1.00
50969;DHT22;36982;51.474;7.228;2024-02-23T09:12:49;7.50;1.00
50969;DHT22;36982;51.474;7.228;2024-02-23T09:15:14;7.60;1.00
50969;DHT22;36982;51.474;7.228;2024-02-23T09:17:40;7.70;1.00
50969;DHT22;36982;51.474;7.228;2024-02-23T09:20:07;7.60;1.00
50969;DHT22;36982;51.474;7.228;2024-02-23T09:22:33;7.70;1.00
50969;DHT22;36982;51.474;7.228;2024-02-23T09:24:59;7.60;1.00
50969;DHT22;36982;51.474;7.228;2024-02-23T09:27:24;7.60;1.00
50969;DHT22;36982;51.474;7.228;2024-02-23T09:29:50;7.60;1.00
50969;DHT22;36982;51.474;7.228;2024-02-23T09:35:36;7.80;1.00
50969;DHT22;36982;51.474;7.228;2024-02-23T09:38:02;7.90;1.00
50969;DHT22;36982;51.474;7.228;2024-02-23T09:40:28;7.90;1.00
50969;DHT22;36982;51.474;7.228;2024-02-23T09:42:56;7.90;1.00
50969;DHT22;36982;51.474;7.228;2024-02-23T09:45:26;7.90;1.00
50969;DHT22;36982;51.474;7.228;2024-02-23T09:47:53;7.90;1.00
50969;DHT22;36982;51.474;7.228;2024-02-23T09:50:21;8.00;1.00
50969;DHT22;36982;51.474;7.228;2024-02-23T09:52:47;7.90;1.00
50969;DHT22;36982;51.474;7.228;2024-02-23T09:55:18;8.00;1.00
50969;DHT22;36982;51.474;7.228;2024-02-23T09:57:47;8.00;1.00
50969;DHT22;36982;51.474;7.228;2024-02-23T10:00:16;8.10;1.00
50969;DHT22;36982;51.474;7.228;2024-02-23T10:02:43;8.10;1.00
50969;DHT22;36982;51.474;7.228;2024-02-23T10:05:10;8.30;1.00
50969;DHT22;36982;51.474;7.228;2024-02-23T10:07:37;8.30;1.00
50969;DHT22;36982;51.474;7.228;2024-02-23T10:13:25;8.60;1.00
50969;DHT22;36982;51.474;7.228;2024-02-23T10:15:51;8.60;1.00
50969;DHT22;36982;51.474;7.228;2024-02-23T10:18:17;8.60;1.00
50969;DHT22;36982;51.474;7.228;2024-02-23T10:20:43;8.50;1.00
50969;DHT22;36982;51.474;7.228;2024-02-23T10:23:09;8.50;1.00
50969;DHT22;36982;51.474;7.228;2024-02-23T10:25:35;8.60;1.00
50969;DHT22;36982;51.474;7.228;2024-02-23T10:28:02;8.50;1.00
50969;DHT22;36982;51.474;7.228;2024-02-23T10:30:28;8.70;1.00
50969;DHT22;36982;51.474;7.228;2024-02-23T10:32:56;8.70;1.00
50969;DHT22;36982;51.474;7.228;2024-02-23T10:35:24;8.70;1.00
50969;DHT22;36982;51.474;7.228;2024-02-23T10:37:51;8.70;1.00
50969;DHT22;36982;51.474;7.228;2024-02-23T10:43:45;8.50;1.00
50969;DHT22;36982;51.474;7.228;2024-02-23T10:46:12;8.40;1.00
50969;DHT22;36982;51.474;7.228;2024-02-23T10:48:40;8.60;1.00
50969;DHT22;36982;51.474;7.228;2024-02-23T10:51:07;8.50;1.00
50969;DHT22;36982;51.474;7.228;2024-02-23T10:53:34;8.70;1.00
50969;DHT22;36982;51.474;7.228;2024-02-23T10:56:00;8.70;1.00
50969;DHT22;36982;51.474;7.228;2024-02-23T10:58:26;8.60;1.00
50969;DHT22;36982;51.474;7.228;2024-02-23T11:00:53;8.70;1.00
50969;DHT22;36982;51.474;7.228;2024-02-23T11:03:24;8.80;1.00
50969;DHT22;36982;51.474;7.228;2024-02-23T11:05:50;8.90;1.00
50969;DHT22;36982;51.474;7.228;2024-02-23T11:08:18;8.90;1.00
50969;DHT22;36982;51.474;7.228;2024-02-23T11:13:47;8.90;1.00
50969;DHT22;36982;51.474;7.228;2024-02-23T11:16:22;8.90;1.00
50969;DHT22;36982;51.474;7.228;2024-02-23T11:18:48;9.00;99.90
50969;DHT22;36982;51.474;7.228;2024-02-23T11:21:14;9.00;99.90
50969;DHT22;36982;51.474;7.228;2024-02-23T11:23:49;9.10;99.90
50969;DHT22;36982;51.474;7.228;2024-02-23T11:26:17;9.20;99.90
50969;DHT22;36982;51.474;7.228;2024-02-23T11:28:50;9.10;99.90
50969;DHT22;36982;51.474;7.228;2024-02-23T11:31:24;9.10;99.90
50969;DHT22;36982;51.474;7.228;2024-02-23T11:33:54;9.10;99.90
50969;DHT22;36982;51.474;7.228;2024-02-23T11:36:38;9.10;99.90
50969;DHT22;36982;51.474;7.228;2024-02-23T11:39:04;9.20;99.90
50969;DHT22;36982;51.474;7.228;2024-02-23T11:41:31;9.10;99.90
50969;DHT22;36982;51.474;7.228;2024-02-23T11:43:57;9.20;99.90
50969;DHT22;36982;51.474;7.228;2024-02-23T11:46:23;9.10;99.90
50969;DHT22;36982;51.474;7.228;2024-02-23T11:48:49;9.00;99.90
50969;DHT22;36982;51.474;7.228;2024-02-23T11:51:23;9.10;99.90
50969;DHT22;36982;51.474;7.228;2024-02-23T11:53:52;9.00;99.90
50969;DHT22;36982;51.474;7.228;2024-02-23T11:56:19;9.20;99.90
50969;DHT22;36982;51.474;7.228;2024-02-23T11:58:46;9.10;99.90
50969;DHT22;36982;51.474;7.228;2024-02-23T12:01:12;9.00;99.90
50969;DHT22;36982;51.474;7.228;2024-02-23T12:03:38;8.90;99.90
50969;DHT22;36982;51.474;7.228;2024-02-23T12:06:05;8.80;99.90
50969;DHT22;36982;51.474;7.228;2024-02-23T12:08:31;8.80;99.90
50969;DHT22;36982;51.474;7.228;2024-02-23T12:11:04;8.80;1.00
50969;DHT22;36982;51.474;7.228;2024-02-23T12:13:30;8.80;99.90
50969;DHT22;36982;51.474;7.228;2024-02-23T12:15:55;8.80;1.00
50969;DHT22;36982;51.474;7.228;2024-02-23T12:18:22;8.80;1.00
50969;DHT22;36982;51.474;7.228;2024-02-23T12:21:02;8.80;1.00
50969;DHT22;36982;51.474;7.228;2024-02-23T12:23:43;8.70;1.00
50969;DHT22;36982;51.474;7.228;2024-02-23T12:26:13;8.70;1.00
50969;DHT22;36982;51.474;7.228;2024-02-23T12:28:40;8.80;1.00
50969;DHT22;36982;51.474;7.228;2024-02-23T12:31:06;8.90;1.00
50969;DHT22;36982;51.474;7.228;2024-02-23T12:33:33;8.90;1.00
50969;DHT22;36982;51.474;7.228;2024-02-23T12:36:06;8.90;1.00
50969;DHT22;36982;51.474;7.228;2024-02-23T12:38:32;8.90;1.00
50969;DHT22;36982;51.474;7.228;2024-02-23T12:41:00;9.00;1.00
50969;DHT22;36982;51.474;7.228;2024-02-23T12:43:25;8.90;1.00
50969;DHT22;36982;51.474;7.228;2024-02-23T12:45:56;8.90;1.00
50969;DHT22;36982;51.474;7.228;2024-02-23T12:48:21;8.80;99.90
50969;DHT22;36982;51.474;7.228;2024-02-23T12:50:48;8.90;99.90
50969;DHT22;36982;51.474;7.228;2024-02-23T12:53:33;9.10;99.90
50969;DHT22;36982;51.474;7.228;2024-02-23T12:56:10;9.00;1.00
50969;DHT22;36982;51.474;7.228;2024-02-23T12:58:37;9.00;99.90
50969;DHT22;36982;51.474;7.228;2024-02-23T13:01:04;8.90;99.90
50969;DHT22;36982;51.474;7.228;2024-02-23T13:03:31;8.90;1.00
50969;DHT22;36982;51.474;7.228;2024-02-23T13:05:57;8.90;1.00
50969;DHT22;36982;51.474;7.228;2024-02-23T13:08:24;9.10;1.00
50969;DHT22;36982;51.474;7.228;2024-02-23T13:10:51;9.10;99.90
50969;DHT22;36982;51.474;7.228;2024-02-23T13:13:17;9.10;1.00
50969;DHT22;36982;51.474;7.228;2024-02-23T13:15:46;9.20;99.90
50969;DHT22;36982;51.474;7.228;2024-02-23T13:18:12;9.20;99.90
50969;DHT22;36982;51.474;7.228;2024-02-23T13:20:38;9.20;99.90
50969;DHT22;36982;51.474;7.228;2024-02-23T13:23:05;9.20;99.90
50969;DHT22;36982;51.474;7.228;2024-02-23T13:25:34;9.10;99.90
50969;DHT22;36982;51.474;7.228;2024-02-23T13:28:02;9.20;99.90
50969;DHT22;36982;51.474;7.228;2024-02-23T13:30:28;9.20;99.90
50969;DHT22;36982;51.474;7.228;2024-02-23T13:32:54;9.10;99.90
50969;DHT22;36982;51.474;7.228;2024-02-23T13:35:20;9.10;99.90
50969;DHT22;36982;51.474;7.228;2024-02-23T13:37:46;9.20;1.00
50969;DHT22;36982;51.474;7.228;2024-02-23T13:40:11;9.20;1.00
50969;DHT22;36982;51.474;7.228;2024-02-23T13:42:37;9.20;1.00
50969;DHT22;36982;51.474;7.228;2024-02-23T13:45:08;9.20;1.00
50969;DHT22;36982;51.474;7.228;2024-02-23T13:47:35;9.10;1.00
50969;DHT22;36982;51.474;7.228;2024-02-23T13:50:01;9.10;1.00
50969;DHT22;36982;51.474;7.228;2024-02-23T13:52:29;9.00;1.00
50969;DHT22;36982;51.474;7.228;2024-02-23T13:55:14;9.00;1.00
50969;DHT22;36982;51.474;7.228;2024-02-23T13:57:40;8.90;1.00
50969;DHT22;36982;51.474;7.228;2024-02-23T14:00:06;9.00;1.00
50969;DHT22;36982;51.474;7.228;2024-02-23T14:02:38;9.00;1.00
50969;DHT22;36982;51.474;7.228;2024-02-23T14:05:06;9.10;1.00
50969;DHT22;36982;51.474;7.228;2024-02-23T14:07:33;9.00;1.00
50969;DHT22;36982;51.474;7.228;2024-02-23T14:09:59;9.10;1.00
50969;DHT22;36982;51.474;7.228;2024-02-23T14:12:24;9.10;1.00
50969;DHT22;36982;51.474;7.228;2024-02-23T14:14:50;9.10;1.00
50969;DHT22;36982;51.474;7.228;2024-02-23T14:17:16;9.10;1.00
50969;DHT22;36982;51.474;7.228;2024-02-23T14:19:42;9.10;1.00
50969;DHT22;36982;51.474;7.228;2024-02-23T14:22:07;9.10;1.00
50969;DHT22;36982;51.474;7.228;2024-02-23T14:24:33;9.30;1.00
50969;DHT22;36982;51.474;7.228;2024-02-23T14:26:58;9.30;1.00
50969;DHT22;36982;51.474;7.228;2024-02-23T14:29:24;9.50;1.00
50969;DHT22;36982;51.474;7.228;2024-02-23T14:31:50;9.50;1.00
50969;DHT22;36982;51.474;7.228;2024-02-23T14:34:15;9.40;1.00
50969;DHT22;36982;51.474;7.228;2024-02-23T14:36:41;9.40;1.00
50969;DHT22;36982;51.474;7.228;2024-02-23T14:39:07;9.40;1.00
50969;DHT22;36982;51.474;7.228;2024-02-23T14:41:33;9.40;1.00
50969;DHT22;36982;51.474;7.228;2024-02-23T14:43:58;9.40;1.00
50969;DHT22;36982;51.474;7.228;2024-02-23T14:46:24;9.40;1.00
50969;DHT22;36982;51.474;7.228;2024-02-23T14:48:49;9.30;1.00
50969;DHT22;36982;51.474;7.228;2024-02-23T14:51:15;9.40;1.00
50969;DHT22;36982;51.474;7.228;2024-02-23T14:53:41;9.40;1.00
50969;DHT22;36982;51.474;7.228;2024-02-23T14:56:07;9.40;1.00
50969;DHT22;36982;51.474;7.228;2024-02-23T14:58:32;9.40;1.00
50969;DHT22;36982;51.474;7.228;2024-02-23T15:00:58;9.30;1.00
50969;DHT22;36982;51.474;7.228;2024-02-23T15:03:25;9.40;1.00
50969;DHT22;36982;51.474;7.228;2024-02-23T15:05:51;9.40;1.00
50969;DHT22;36982;51.474;7.228;2024-02-23T15:08:16;9.30;1.00
50969;DHT22;36982;51.474;7.228;2024-02-23T15:10:42;9.30;1.00
50969;DHT22;36982;51.474;7.228;2024-02-23T15:13:11;9.20;1.00
50969;DHT22;36982;51.474;7.228;2024-02-23T15:15:36;9.20;1.00
50969;DHT22;36982;51.474;7.228;2024-02-23T15:18:06;9.20;1.00
50969;DHT22;36982;51.474;7.228;2024-02-23T15:20:31;9.20;1.00
50969;DHT22;36982;51.474;7.228;2024-02-23T15:22:57;9.30;1.00
50969;DHT22;36982;51.474;7.228;2024-02-23T15:25:23;9.30;1.00
50969;DHT22;36982;51.474;7.228;2024-02-23T15:27:48;9.20;1.00
50969;DHT22;36982;51.474;7.228;2024-02-23T15:30:15;9.10;1.00
50969;DHT22;36982;51.474;7.228;2024-02-23T15:32:41;9.00;1.00
50969;DHT22;36982;51.474;7.228;2024-02-23T15:35:07;8.90;1.00
50969;DHT22;36982;51.474;7.228;2024-02-23T15:37:33;8.90;1.00
50969;DHT22;36982;51.474;7.228;2024-02-23T15:39:59;8.80;1.00
50969;DHT22;36982;51.474;7.228;2024-02-23T15:42:35;8.90;1.00
50969;DHT22;36982;51.474;7.228;2024-02-23T15:45:04;8.90;1.00
50969;DHT22;36982;51.474;7.228;2024-02-23T15:47:33;8.80;1.00
50969;DHT22;36982;51.474;7.228;2024-02-23T15:49:59;8.70;1.00
50969;DHT22;36982;51.474;7.228;2024-02-23T15:52:26;8.80;1.00
50969;DHT22;36982;51.474;7.228;2024-02-23T15:54:52;8.70;1.00
50969;DHT22;36982;51.474;7.228;2024-02-23T15:57:17;8.70;1.00
50969;DHT22;36982;51.474;7.228;2024-02-23T15:59:43;8.70;1.00
50969;DHT22;36982;51.474;7.228;2024-02-23T16:02:09;8.70;1.00